Hialeah, FL (33010)

3:35 PM EST on February 06, 2016 (GMT -0500)
U of Miami Health System WeatherSTEM | | Change Station
CLOSE
Current Station
Personal Weather Station
Location: Miami, FL
Elevation: 68 ft
Nearby Weather Stations

Elev 68 ft 25.79 °N, 80.22 °W | Updated 3 minutes ago

Mostly Cloudy
Mostly Cloudy
75.4 °F
Feels Like 77 °F
N
4.0
Wind Variable Wind from ENE
Gusts 15.0 mph

Today
High -- | Low -- °F
--% Chance of Precip.
Yesterday
High -- | Low -- °F
Precip. -- in
Pressure 30.03 in
Visibility 10.0 miles
Clouds Scattered Clouds 2800 ft
Mostly Cloudy 7500 ft
Mostly Cloudy 25000 ft
Heat Index 77 °F
Dew Point 66 °F
Humidity 72%
Rainfall 0.08 in
Snow Depth Not available.
7:02 AM 6:08 PM
Waning Crescent, 4% visible
METAR KMIA 061953Z 13010KT 10SM SCT028 BKN075 BKN250 25/18 A3002 RMK AO2 SLP167 T02500183
Pressure 30.03 in
Visibility 10.0 miles
Clouds Scattered Clouds 2800 ft
Mostly Cloudy 7500 ft
Mostly Cloudy 25000 ft
Heat Index 77 °F
Dew Point 66 °F
Humidity 72%
Rainfall 0.08 in
Snow Depth Not available.
7:02 AM 6:08 PM
Waning Crescent, 4% visible
METAR KMIA 061953Z 13010KT 10SM SCT028 BKN075 BKN250 25/18 A3002 RMK AO2 SLP167 T02500183

10-Day Weather Forecast

Almanac

Astronomy

Feb. 06, 2016 Rise Set
Actual Time
Civil Twilight
Nautical Twilight
Astronomical Twilight
Moon
Length of Visible Light
Length of Day
Tomorrow will be .
, % of the Moon is Illuminated

Today's Extremes

State Highs State Lows

Community

WunderPhotos

Upload Photos

1,891,046 photos uploaded!

WunderBlog® & News

Nearby

Air Quality

  Air Quality AQ Index Pollutant
Not available.

Snow Depth

Station Depth Elevation

Earthquake Activity

City Distance Mag. Time & Date
Minimum magnitude displayed is 2.5.

Coastal Water Temperatures

Place Temperature

Stations

Nearby Weather Stations

Station Location Temp. Windchill Dew Point Humidity Wind Precip. Elev Updated Type
                   

Watches & Warnings

There are currently no watches in effect.